createdAt,value
2022-11-16T00:02:17.670Z,17.30
2022-11-16T00:05:16.146Z,14.30
2022-11-16T00:08:09.713Z,19.63
2022-11-16T00:11:09.442Z,19.80
2022-11-16T00:14:02.820Z,18.33
2022-11-16T00:16:53.492Z,21.17
2022-11-16T00:19:45.069Z,19.03
2022-11-16T00:22:35.602Z,19.20
2022-11-16T00:25:27.237Z,20.13
2022-11-16T00:28:17.222Z,20.10
2022-11-16T00:31:13.855Z,21.03
2022-11-16T00:34:07.262Z,20.83
2022-11-16T00:36:57.836Z,23.37
2022-11-16T00:39:48.061Z,19.07
2022-11-16T00:42:42.743Z,23.50
2022-11-16T00:45:35.794Z,20.00
2022-11-16T00:48:26.299Z,19.73
2022-11-16T00:51:14.890Z,20.50
2022-11-16T00:54:24.181Z,20.70
2022-11-16T00:57:12.834Z,21.90
2022-11-16T01:00:05.612Z,22.73
2022-11-16T01:03:14.886Z,22.53
2022-11-16T01:06:06.989Z,20.80
2022-11-16T01:08:55.590Z,22.77
2022-11-16T01:12:03.568Z,20.80
2022-11-16T01:14:56.592Z,22.47
2022-11-16T01:17:47.994Z,21.23
2022-11-16T01:20:38.912Z,20.80
2022-11-16T01:23:27.497Z,21.10
2022-11-16T01:26:18.983Z,25.40
2022-11-16T01:29:08.969Z,21.43
2022-11-16T01:31:59.129Z,22.30
2022-11-16T01:34:47.697Z,22.27
2022-11-16T01:37:40.668Z,22.63
2022-11-16T01:40:29.369Z,24.87
2022-11-16T01:43:20.673Z,22.40
2022-11-16T01:46:14.950Z,24.07
2022-11-16T01:49:09.531Z,24.10
2022-11-16T01:52:04.623Z,22.80
2022-11-16T01:55:29.682Z,22.80
2022-11-16T01:58:23.209Z,24.60
2022-11-16T02:01:15.848Z,24.47
2022-11-16T02:04:06.062Z,24.77
2022-11-16T02:07:03.705Z,24.97
2022-11-16T02:10:04.086Z,24.27
2022-11-16T02:13:11.414Z,27.17
2022-11-16T02:16:06.990Z,28.03
2022-11-16T02:18:59.548Z,23.60
2022-11-16T02:22:00.154Z,23.30
2022-11-16T02:24:55.383Z,23.87
2022-11-16T02:27:55.933Z,25.57
2022-11-16T02:30:48.693Z,24.70
2022-11-16T02:33:40.118Z,26.33
2022-11-16T02:36:34.223Z,26.53
2022-11-16T02:39:28.774Z,23.63
2022-11-16T02:42:19.721Z,30.47
2022-11-16T02:45:22.451Z,25.90
2022-11-16T02:48:16.038Z,29.07
2022-11-16T02:51:09.386Z,28.63
2022-11-16T02:54:01.999Z,26.60
2022-11-16T02:56:52.701Z,28.43
2022-11-16T02:59:48.559Z,30.17
2022-11-16T03:02:41.478Z,28.87
2022-11-16T03:05:35.457Z,28.27
2022-11-16T03:08:27.067Z,30.17
2022-11-16T03:11:33.826Z,31.37
2022-11-16T03:14:26.365Z,30.07
2022-11-16T03:17:20.724Z,29.73
2022-11-16T03:20:17.867Z,32.60
2022-11-16T03:23:13.181Z,33.40
2022-11-16T03:26:03.413Z,36.03
2022-11-16T03:28:56.290Z,33.23
2022-11-16T03:31:55.123Z,32.17
2022-11-16T03:34:50.191Z,33.50
2022-11-16T03:37:44.157Z,28.53
2022-11-16T03:40:39.951Z,30.63
2022-11-16T03:43:32.307Z,30.73
2022-11-16T03:46:28.670Z,30.30
2022-11-16T03:49:20.179Z,27.10
2022-11-16T03:52:11.600Z,28.37
2022-11-16T03:55:06.089Z,30.60
2022-11-16T03:57:57.437Z,29.10
2022-11-16T04:00:53.254Z,28.17
2022-11-16T04:03:46.088Z,29.60
2022-11-16T04:06:55.820Z,31.17
2022-11-16T04:10:03.560Z,27.87
2022-11-16T04:13:09.906Z,27.33
2022-11-16T04:16:22.022Z,29.87
2022-11-16T04:19:28.017Z,30.80
2022-11-16T04:22:36.330Z,29.73
2022-11-16T04:25:28.554Z,27.80
2022-11-16T04:28:18.929Z,28.37
2022-11-16T04:31:30.671Z,26.80
2022-11-16T04:34:33.171Z,24.20
2022-11-16T04:37:44.220Z,26.60
2022-11-16T04:40:35.137Z,30.23
2022-11-16T04:43:27.681Z,30.63
2022-11-16T04:46:38.054Z,25.50
2022-11-16T04:49:32.107Z,26.57
2022-11-16T04:52:23.999Z,24.07
2022-11-16T04:55:16.331Z,26.30
2022-11-16T04:58:05.343Z,27.80
2022-11-16T05:00:54.082Z,27.40
2022-11-16T05:06:55.616Z,26.33
2022-11-16T05:09:50.413Z,27.00
2022-11-16T05:15:42.778Z,25.70
2022-11-16T05:18:36.171Z,26.93
2022-11-16T05:21:27.195Z,27.40
2022-11-16T05:27:38.515Z,25.83
2022-11-16T05:30:28.641Z,24.17
2022-11-16T05:33:28.373Z,26.03
2022-11-16T05:36:16.939Z,27.70
2022-11-16T05:39:11.380Z,25.87
2022-11-16T05:42:04.811Z,23.87
2022-11-16T05:44:53.415Z,26.57
2022-11-16T05:47:42.002Z,24.90
2022-11-16T05:50:31.862Z,26.27
2022-11-16T05:53:20.407Z,19.90
2022-11-16T05:56:14.250Z,25.90
2022-11-16T05:59:07.830Z,27.27
2022-11-16T06:02:03.986Z,26.07
2022-11-16T06:04:54.468Z,25.73
2022-11-16T06:07:53.877Z,29.00
2022-11-16T06:10:42.397Z,28.57
2022-11-16T06:13:32.460Z,28.73
2022-11-16T06:16:29.287Z,25.43
2022-11-16T06:19:17.851Z,26.67
2022-11-16T06:22:07.649Z,31.87
2022-11-16T06:25:03.812Z,26.30
2022-11-16T06:27:54.104Z,25.10
2022-11-16T06:30:51.411Z,28.97
2022-11-16T06:33:44.245Z,27.77
2022-11-16T06:36:35.598Z,27.13
2022-11-16T06:39:31.628Z,26.97
2022-11-16T06:42:23.769Z,24.40
2022-11-16T06:45:15.141Z,25.33
2022-11-16T06:48:10.724Z,27.40
2022-11-16T06:51:12.480Z,29.70
2022-11-16T06:54:09.422Z,26.80
2022-11-16T06:56:59.185Z,25.20
2022-11-16T06:59:50.553Z,23.57
2022-11-16T07:02:39.364Z,23.53
2022-11-16T07:05:32.463Z,27.03
2022-11-16T07:08:21.082Z,28.53
2022-11-16T07:11:10.725Z,24.03
2022-11-16T07:14:02.059Z,26.73
2022-11-16T07:17:01.874Z,23.77
2022-11-16T07:19:58.485Z,24.43
2022-11-16T07:22:50.821Z,25.47
2022-11-16T07:25:39.388Z,24.90
2022-11-16T07:28:40.923Z,23.70
2022-11-16T07:31:37.058Z,24.30
2022-11-16T07:34:32.786Z,25.20
2022-11-16T07:37:21.627Z,26.70
2022-11-16T07:40:15.271Z,25.00
2022-11-16T07:43:05.956Z,25.47
2022-11-16T07:46:13.795Z,25.03
2022-11-16T07:49:11.522Z,26.70
2022-11-16T07:52:03.882Z,28.53
2022-11-16T07:54:55.318Z,24.67
2022-11-16T07:57:56.791Z,25.10
2022-11-16T08:00:45.650Z,25.50
2022-11-16T08:03:45.695Z,28.70
2022-11-16T08:06:42.461Z,25.20
2022-11-16T08:09:34.476Z,27.13
2022-11-16T08:12:26.189Z,27.00
2022-11-16T08:15:23.370Z,25.93
2022-11-16T08:18:19.423Z,27.60
2022-11-16T08:21:08.866Z,26.13
2022-11-16T08:24:00.395Z,27.83
2022-11-16T08:26:50.172Z,29.67
2022-11-16T08:29:45.028Z,26.40
2022-11-16T08:32:35.095Z,28.40
2022-11-16T08:35:23.655Z,29.07
2022-11-16T08:38:12.270Z,27.87
2022-11-16T08:41:02.126Z,26.93
2022-11-16T08:44:00.612Z,27.50
2022-11-16T08:46:56.302Z,24.67
2022-11-16T08:49:49.848Z,29.90
2022-11-16T08:52:40.088Z,28.40
2022-11-16T08:55:29.792Z,29.60
2022-11-16T08:58:18.409Z,29.87
2022-11-16T09:01:15.706Z,28.57
2022-11-16T09:04:04.336Z,27.60
2022-11-16T09:06:56.821Z,30.93
2022-11-16T09:09:52.427Z,32.53
2022-11-16T09:12:41.599Z,27.80
2022-11-16T09:15:33.103Z,30.47
2022-11-16T09:18:23.569Z,31.30
2022-11-16T09:21:23.998Z,27.70
2022-11-16T09:24:14.441Z,29.53
2022-11-16T09:27:06.727Z,32.40
2022-11-16T09:29:57.043Z,31.93
2022-11-16T09:32:50.613Z,28.97
2022-11-16T09:35:43.309Z,30.60
2022-11-16T09:38:47.477Z,29.50
2022-11-16T09:41:53.721Z,31.00
2022-11-16T09:45:02.118Z,32.53
2022-11-16T09:47:53.946Z,31.00
2022-11-16T09:50:56.226Z,34.33
2022-11-16T09:53:50.409Z,32.47
2022-11-16T09:56:41.053Z,34.57
2022-11-16T09:59:36.893Z,32.20
2022-11-16T10:02:35.019Z,34.33
2022-11-16T10:05:26.680Z,30.97
2022-11-16T10:08:18.116Z,35.63
2022-11-16T10:11:33.830Z,37.40
2022-11-16T10:14:46.509Z,33.73
2022-11-16T10:17:54.314Z,35.50
2022-11-16T10:20:57.250Z,35.70
2022-11-16T10:23:55.570Z,36.07
2022-11-16T10:26:49.089Z,36.30
2022-11-16T10:29:49.879Z,33.00
2022-11-16T10:32:41.052Z,31.57
2022-11-16T10:35:34.029Z,33.73
2022-11-16T10:38:35.231Z,33.73
2022-11-16T10:41:37.279Z,38.07
2022-11-16T10:44:34.136Z,34.77
2022-11-16T10:47:36.022Z,36.50
2022-11-16T10:50:35.410Z,34.43
2022-11-16T10:53:34.493Z,35.70
2022-11-16T10:56:24.204Z,35.23
2022-11-16T10:59:18.660Z,39.47
2022-11-16T11:02:28.558Z,36.80
2022-11-16T11:05:26.265Z,36.40
2022-11-16T11:11:50.904Z,41.83
2022-11-16T11:14:40.708Z,38.20
2022-11-16T11:17:38.082Z,34.70
2022-11-16T11:20:33.717Z,36.90
2022-11-16T11:23:28.511Z,35.57
2022-11-16T11:26:39.974Z,36.03
2022-11-16T11:29:33.541Z,38.43
2022-11-16T11:32:30.527Z,37.83
2022-11-16T11:35:25.513Z,35.80
2022-11-16T11:38:17.082Z,33.70
2022-11-16T11:41:06.131Z,34.13
2022-11-16T11:44:03.185Z,35.00
2022-11-16T11:47:42.484Z,34.47
2022-11-16T11:50:13.101Z,33.87
2022-11-16T11:53:04.746Z,35.07
2022-11-16T11:55:59.769Z,40.53
2022-11-16T11:58:51.581Z,38.30
2022-11-16T12:01:48.233Z,36.33
2022-11-16T12:04:57.277Z,41.60
2022-11-16T12:07:59.717Z,40.50
2022-11-16T12:10:52.327Z,40.20
2022-11-16T12:13:49.277Z,36.83
2022-11-16T12:16:45.765Z,42.93
2022-11-16T12:19:45.628Z,43.90
2022-11-16T12:22:46.270Z,39.87
2022-11-16T12:25:44.420Z,43.87
2022-11-16T12:28:45.003Z,43.57
2022-11-16T12:31:49.655Z,43.83
2022-11-16T12:34:56.560Z,50.37
2022-11-16T12:37:51.643Z,43.83
2022-11-16T12:40:52.137Z,41.80
2022-11-16T12:43:46.635Z,43.50
2022-11-16T12:46:40.330Z,47.30
2022-11-16T12:49:53.638Z,42.37
2022-11-16T12:52:59.116Z,40.97
2022-11-16T12:55:52.966Z,42.57
2022-11-16T12:58:53.417Z,43.87
2022-11-16T13:01:50.368Z,41.53
2022-11-16T13:04:42.661Z,42.80
2022-11-16T13:07:35.942Z,47.00
2022-11-16T13:10:28.245Z,42.70
2022-11-16T13:16:27.382Z,40.27
2022-11-16T13:19:26.984Z,44.13
2022-11-16T13:22:20.343Z,40.43
2022-11-16T13:25:16.423Z,43.30
2022-11-16T13:28:22.132Z,41.17
2022-11-16T13:31:16.847Z,38.43
2022-11-16T13:34:12.445Z,42.03
2022-11-16T13:37:24.022Z,40.97
2022-11-16T13:40:28.944Z,43.30
2022-11-16T13:43:21.745Z,44.63
2022-11-16T13:46:27.609Z,34.10
2022-11-16T13:49:28.518Z,37.60
2022-11-16T13:52:25.066Z,37.00
2022-11-16T13:55:30.397Z,35.73
2022-11-16T13:58:23.206Z,34.57
2022-11-16T14:01:18.403Z,34.17
2022-11-16T14:04:26.651Z,37.87
2022-11-16T14:07:48.633Z,34.90
2022-11-16T14:11:05.358Z,32.60
2022-11-16T14:14:06.587Z,30.63
2022-11-16T14:16:55.425Z,33.93
2022-11-16T14:20:07.833Z,33.00
2022-11-16T14:23:06.279Z,30.27
2022-11-16T14:26:10.763Z,32.37
2022-11-16T14:29:13.373Z,33.17
2022-11-16T14:32:08.908Z,28.17
2022-11-16T14:35:05.445Z,30.57
2022-11-16T14:38:03.135Z,32.10
2022-11-16T14:41:06.730Z,38.50
2022-11-16T14:43:56.693Z,35.73
2022-11-16T14:46:50.963Z,30.80
2022-11-16T14:50:02.022Z,36.10
2022-11-16T14:52:54.335Z,34.83
2022-11-16T14:55:45.553Z,29.37
2022-11-16T14:58:37.434Z,33.00
2022-11-16T15:01:28.092Z,34.40
2022-11-16T15:04:22.062Z,33.87
2022-11-16T15:07:12.382Z,31.50
2022-11-16T15:10:04.664Z,28.77
2022-11-16T15:12:56.479Z,31.13
2022-11-16T15:15:48.316Z,28.33
2022-11-16T15:18:37.932Z,33.93
2022-11-16T15:21:35.187Z,32.73
2022-11-16T15:24:32.378Z,27.17
2022-11-16T15:27:37.153Z,29.17
2022-11-16T15:30:26.895Z,30.93
2022-11-16T15:33:23.010Z,27.73
2022-11-16T15:36:29.335Z,26.80
2022-11-16T15:39:22.233Z,30.17
2022-11-16T15:42:15.637Z,27.90
2022-11-16T15:45:15.599Z,25.20
2022-11-16T15:48:13.915Z,26.47
2022-11-16T15:51:09.375Z,24.30
2022-11-16T15:54:13.627Z,22.77
2022-11-16T15:57:10.420Z,24.10
2022-11-16T16:00:07.974Z,23.73
2022-11-16T16:02:57.258Z,20.10
2022-11-16T16:05:47.981Z,20.77
2022-11-16T16:08:37.433Z,18.47
2022-11-16T16:11:34.656Z,19.40
2022-11-16T16:14:29.662Z,18.57
2022-11-16T16:17:30.499Z,22.13
2022-11-16T16:20:26.625Z,19.40
2022-11-16T16:23:17.802Z,20.80
2022-11-16T16:26:15.577Z,17.20
2022-11-16T16:29:08.748Z,16.80
2022-11-16T16:32:00.317Z,16.43
2022-11-16T16:34:50.286Z,16.87
2022-11-16T16:37:41.779Z,19.73
2022-11-16T16:40:42.971Z,14.70
2022-11-16T16:43:32.087Z,15.27
2022-11-16T16:46:21.648Z,13.80
2022-11-16T16:49:13.695Z,15.47
2022-11-16T16:52:06.690Z,15.37
2022-11-16T16:54:57.260Z,13.20
2022-11-16T16:57:47.290Z,12.37
2022-11-16T17:00:36.008Z,13.00
2022-11-16T17:03:24.611Z,13.10
2022-11-16T17:06:19.919Z,13.87
2022-11-16T17:09:10.785Z,13.77
2022-11-16T17:11:59.418Z,11.87
2022-11-16T17:14:57.141Z,14.30
2022-11-16T17:17:48.734Z,13.37
2022-11-16T17:20:42.688Z,11.70
2022-11-16T17:23:35.659Z,11.60
2022-11-16T17:26:29.461Z,13.30
2022-11-16T17:29:20.962Z,11.80
2022-11-16T17:32:09.648Z,12.40
2022-11-16T17:35:08.482Z,9.60
2022-11-16T17:37:58.639Z,12.97
2022-11-16T17:40:48.655Z,11.83
2022-11-16T17:43:41.560Z,10.97
2022-11-16T17:46:47.308Z,12.50
2022-11-16T17:49:37.048Z,9.90
2022-11-16T17:52:28.252Z,9.53
2022-11-16T17:55:16.952Z,9.23
2022-11-16T17:58:06.883Z,8.80
2022-11-16T18:00:59.845Z,10.83
2022-11-16T18:03:50.785Z,9.87
2022-11-16T18:06:43.251Z,9.57
2022-11-16T18:09:37.049Z,10.23
2022-11-16T18:12:36.476Z,8.83
2022-11-16T18:15:37.842Z,9.53
2022-11-16T18:18:30.704Z,9.97
2022-11-16T18:21:20.912Z,9.53
2022-11-16T18:24:20.094Z,7.97
2022-11-16T18:27:08.736Z,8.90
2022-11-16T18:30:03.954Z,8.93
2022-11-16T18:32:58.356Z,11.33
2022-11-16T18:35:51.156Z,8.53
2022-11-16T18:38:41.524Z,9.30
2022-11-16T18:41:34.996Z,9.63
2022-11-16T18:44:34.117Z,8.93
2022-11-16T18:47:22.784Z,8.83
2022-11-16T18:50:21.426Z,9.30
2022-11-16T18:53:21.033Z,8.57
2022-11-16T18:56:11.828Z,8.23
2022-11-16T18:59:03.320Z,8.97
2022-11-16T19:01:54.960Z,10.07
2022-11-16T19:04:48.609Z,10.07
2022-11-16T19:07:40.866Z,10.27
2022-11-16T19:10:29.580Z,10.73
2022-11-16T19:13:18.186Z,10.07
2022-11-16T19:16:07.210Z,11.50
2022-11-16T19:18:55.901Z,10.97
2022-11-16T19:21:44.506Z,9.90
2022-11-16T19:24:36.524Z,10.43
2022-11-16T19:27:26.479Z,12.63
2022-11-16T19:30:16.205Z,11.53
2022-11-16T19:33:09.522Z,11.10
2022-11-16T19:36:00.927Z,10.87
2022-11-16T19:38:56.723Z,9.63
2022-11-16T19:41:49.160Z,9.80
2022-11-16T19:44:40.374Z,13.07
2022-11-16T19:47:28.954Z,12.57
2022-11-16T19:50:27.545Z,13.53
2022-11-16T19:53:19.185Z,14.40
2022-11-16T19:56:16.546Z,11.67
2022-11-16T19:59:08.768Z,14.13
2022-11-16T20:02:01.642Z,13.43
2022-11-16T20:04:55.356Z,12.70
2022-11-16T20:07:44.618Z,11.70
2022-11-16T20:10:33.273Z,13.20
2022-11-16T20:13:25.546Z,11.27
2022-11-16T20:16:15.818Z,12.73
2022-11-16T20:19:07.474Z,8.53
2022-11-16T20:22:05.340Z,10.43
2022-11-16T20:24:55.659Z,10.93
2022-11-16T20:27:51.022Z,8.70
2022-11-16T20:30:41.688Z,9.33
2022-11-16T20:33:44.797Z,8.77
2022-11-16T20:36:36.443Z,9.67
2022-11-16T20:39:27.518Z,8.47
2022-11-16T20:42:16.153Z,9.20
2022-11-16T20:45:06.687Z,9.07
2022-11-16T20:47:59.581Z,8.20
2022-11-16T20:50:57.373Z,7.93
2022-11-16T20:53:48.184Z,7.57
2022-11-16T20:56:51.028Z,6.93
2022-11-16T20:59:41.533Z,7.00
2022-11-16T21:02:33.206Z,7.93
2022-11-16T21:05:29.882Z,7.67
2022-11-16T21:08:21.680Z,7.70
2022-11-16T21:11:16.640Z,6.97
2022-11-16T21:14:16.526Z,6.43
2022-11-16T21:17:08.980Z,6.27
2022-11-16T21:20:25.939Z,5.87
2022-11-16T21:23:11.868Z,5.50
2022-11-16T21:26:05.235Z,5.77
2022-11-16T21:28:56.870Z,7.80
2022-11-16T21:31:45.461Z,5.40
2022-11-16T21:34:40.161Z,5.50
2022-11-16T21:37:29.021Z,6.07
2022-11-16T21:40:17.884Z,7.70
2022-11-16T21:43:07.851Z,5.60
2022-11-16T21:46:03.700Z,5.07
2022-11-16T21:48:58.271Z,5.00
2022-11-16T21:51:55.004Z,5.77
2022-11-16T21:54:50.907Z,5.20
2022-11-16T21:57:41.305Z,6.13
2022-11-16T22:00:31.554Z,5.63
2022-11-16T22:03:23.390Z,5.57
2022-11-16T22:06:31.841Z,4.77
2022-11-16T22:09:23.696Z,5.47
2022-11-16T22:12:14.146Z,5.10
2022-11-16T22:15:11.312Z,5.97
2022-11-16T22:18:01.237Z,4.20
2022-11-16T22:20:50.788Z,5.27
2022-11-16T22:23:40.833Z,4.97
2022-11-16T22:26:34.025Z,4.30
2022-11-16T22:29:22.577Z,5.07
2022-11-16T22:32:16.196Z,4.80
2022-11-16T22:35:24.043Z,4.70
2022-11-16T22:38:14.988Z,4.03
2022-11-16T22:41:07.672Z,5.00
2022-11-16T22:44:03.112Z,4.07
2022-11-16T22:46:56.654Z,4.30
2022-11-16T22:49:55.189Z,7.13
2022-11-16T22:52:46.558Z,3.70
2022-11-16T22:55:46.476Z,4.00
2022-11-16T22:58:54.573Z,4.93
2022-11-16T23:01:44.982Z,4.10
2022-11-16T23:04:38.402Z,3.60
2022-11-16T23:07:30.067Z,5.23
2022-11-16T23:10:23.653Z,4.80
2022-11-16T23:13:32.974Z,4.80
2022-11-16T23:16:24.217Z,3.87
2022-11-16T23:19:29.575Z,4.53
2022-11-16T23:22:42.786Z,4.27
2022-11-16T23:25:57.711Z,4.37
2022-11-16T23:28:55.552Z,7.73
2022-11-16T23:31:45.257Z,5.77
2022-11-16T23:34:36.159Z,3.90
2022-11-16T23:37:28.094Z,3.70
2022-11-16T23:40:20.537Z,4.40
2022-11-16T23:43:45.846Z,3.83
2022-11-16T23:46:36.140Z,4.70
2022-11-16T23:49:27.504Z,4.30
2022-11-16T23:52:18.022Z,5.50
2022-11-16T23:55:14.148Z,5.70
2022-11-16T23:58:02.757Z,4.57
